Latest Weather Observations for Ouse

IDT60801

Issued at 8:31 pm EST Monday 31 August 2015 (issued every 30 minutes, with the page automatically refreshed every 10 minutes)

About weather observations | Map of weather stations | Latest weather observations for TAS | Other Formats
Station Details ID: 095048 Name: OUSE FIRE STATION Lat: -42.48 Lon: 146.71 Height: 90.0 m
Data from the previous 72 hours. | See also: Recent months at Ouse
Date/Time
EST
Temp
°C
App
Temp
°C
Dew
Point
Rel
Hum
%
Delta-T
°C
Wind Press
QNH
hPa
Press
MSL
hPa
Rain
since 9 am
mm
Dir
 
Spd
km/h
Gust
km/h
Spd
kts
Gust
kts
31/08:30pm 7.7 6.7 5.8 88 0.9 CALM 0 0 0 0 1018.8 1019.0 0.0
31/08:00pm 7.9 6.9 5.5 85 1.1 CALM 0 0 0 0 1018.7 1018.9 0.0
31/07:30pm 8.5 7.5 5.6 82 1.3 CALM 0 0 0 0 1018.6 1018.8 0.0
31/07:00pm 8.7 7.7 5.6 81 1.4 CALM 0 0 0 0 1018.6 1018.8 0.0
31/06:30pm 9.0 8.0 5.4 78 1.6 CALM 0 0 0 0 1018.4 1018.6 0.0
31/06:00pm 9.8 6.9 4.8 71 2.2 ESE 9 11 5 6 1018.5 1018.7 0.0
31/05:30pm 10.2 7.9 5.0 70 2.4 N 6 7 3 4 1018.6 1018.8 0.0
31/05:00pm 10.6 9.3 4.1 64 2.9 CALM 0 0 0 0 1018.6 1018.8 0.0
31/04:30pm 10.8 9.2 4.5 65 2.8 N 2 7 1 4 1018.6 1018.8 0.0
31/04:00pm 10.8 9.0 3.6 61 3.2 NNW 2 6 1 3 1018.8 1019.0 0.0
31/03:30pm 10.9 9.5 3.7 61 3.2 CALM 0 0 0 0 1018.9 1019.1 0.0
31/03:00pm 10.9 9.5 3.5 60 3.3 CALM 0 0 0 0 1019.0 1019.2 0.0
31/02:30pm 10.7 9.3 3.5 61 3.2 CALM 0 0 0 0 1019.2 1019.4 0.0
31/02:00pm 10.4 7.8 3.4 62 3.1 ESE 6 9 3 5 1019.5 1019.7 0.0
31/01:30pm 10.2 7.7 3.9 65 2.8 NNE 6 9 3 5 1019.6 1019.8 0.0
31/01:00pm 10.4 8.0 4.5 67 2.6 E 6 9 3 5 1020.0 1020.2 0.0
31/12:30pm 9.8 7.2 4.4 69 2.4 ENE 7 11 4 6 1020.5 1020.7 0.0
31/12:00pm 9.3 6.7 4.3 71 2.2 SE 7 13 4 7 1021.1 1021.3 0.0
31/11:30am 9.3 7.0 4.7 73 2.1 SSE 6 9 3 5 1021.3 1021.5 0.0
31/11:00am 8.6 6.6 4.4 75 1.8 ENE 4 9 2 5 1021.3 1021.5 0.0
31/10:30am 8.3 6.1 3.6 72 2.0 NE 4 7 2 4 1021.5 1021.7 0.0
31/10:00am 8.4 5.8 4.0 74 1.9 NE 7 9 4 5 1021.7 1021.9 0.0
31/09:30am 7.6 5.1 3.8 77 1.6 E 6 11 3 6 1022.0 1022.2 0.0
31/09:00am 7.2 5.3 4.9 85 1.0 NE 4 9 2 5 1022.2 1022.4 0.0
31/08:30am 5.3 4.0 4.1 92 0.5 CALM 0 0 0 0 1022.4 1022.6 0.0
31/08:00am 4.4 3.1 4.1 98 0.1 CALM 0 0 0 0 1022.3 1022.5 0.0
31/07:30am 3.5 0.9 3.4 99 0.0 NNE 6 7 3 4 1022.1 1022.3 0.0
31/07:00am 3.1 1.5 2.7 97 0.2 CALM 0 0 0 0 1021.9 1022.1 0.0
31/06:30am 3.4 1.9 2.8 96 0.2 CALM 0 0 0 0 1021.8 1022.0 0.0
31/06:00am 3.7 2.2 3.0 95 0.3 CALM 0 7 0 4 1021.8 1022.0 0.0
31/05:30am 4.5 2.8 3.8 95 0.3 N 2 7 1 4 1022.0 1022.2 0.0
31/05:00am 5.0 3.7 4.1 94 0.4 CALM 0 0 0 0 1022.1 1022.3 0.0
31/04:30am 5.0 3.4 4.3 95 0.3 NW 2 7 1 4 1022.4 1022.6 0.0
31/04:00am 5.1 3.8 4.1 93 0.4 CALM 0 0 0 0 1022.3 1022.5 0.0
31/03:30am 5.1 3.4 4.2 94 0.4 NW 2 7 1 4 1022.2 1022.4 0.0
31/03:00am 5.1 3.4 4.1 93 0.4 NW 2 7 1 4 1022.5 1022.7 0.0
31/02:30am 4.9 2.3 4.0 94 0.4 N 7 9 4 5 1022.8 1023.0 0.0
31/02:00am 4.9 3.6 3.9 93 0.4 CALM 0 0 0 0 1023.2 1023.4 0.0
31/01:30am 5.1 3.7 3.8 91 0.5 CALM 0 0 0 0 1023.4 1023.6 0.0
31/01:00am 5.2 3.9 4.0 92 0.5 CALM 0 7 0 4 1023.6 1023.8 0.0
31/12:30am 5.3 3.9 3.8 90 0.6 CALM 0 0 0 0 1023.8 1024.0 0.0
31/12:00am 5.3 2.8 3.8 90 0.6 N 6 7 3 4 1023.8 1024.0 0.0
 
Date/Time
EST
Temp
°C
App
Temp
°C
Dew
Point
Rel
Hum
%
Delta-T
°C
Wind Press
QNH
hPa
Press
MSL
hPa
Rain
since 9 am
mm
Dir
 
Spd
km/h
Gust
km/h
Spd
kts
Gust
kts
30/11:30pm 5.4 3.6 3.7 89 0.7 N 2 7 1 4 1024.1 1024.3 0.0
30/11:00pm 5.4 2.9 3.6 88 0.8 NE 6 7 3 4 1024.3 1024.6 0.0
30/10:30pm 5.5 3.7 3.3 86 0.9 NE 2 7 1 4 1024.4 1024.7 0.0
30/10:00pm 6.2 3.7 3.9 85 1.0 NE 6 7 3 4 1024.5 1024.8 0.0
30/09:30pm 6.9 4.4 3.9 81 1.3 SSE 6 7 3 4 1024.5 1024.8 0.0
30/09:00pm 7.2 4.7 3.8 79 1.5 SE 6 9 3 5 1024.5 1024.8 0.0
30/08:30pm 7.2 4.5 3.8 79 1.5 SSE 7 13 4 7 1024.5 1024.8 0.0
30/08:00pm 6.9 4.2 3.9 81 1.3 SSE 7 9 4 5 1024.2 1024.4 0.0
30/07:30pm 5.3 2.5 3.3 87 0.8 SE 7 11 4 6 1024.0 1024.2 0.0
30/07:00pm 5.1 2.4 2.5 83 1.1 SSW 6 9 3 5 1023.9 1024.1 0.0
30/06:30pm 6.3 3.0 2.6 77 1.5 SSE 9 13 5 7 1023.8 1024.0 0.0
30/06:00pm 7.1 3.8 2.6 73 1.9 SSE 9 17 5 9 1023.7 1023.9 0.0
30/05:30pm 8.1 4.5 2.8 69 2.2 SSE 11 15 6 8 1023.5 1023.7 0.0
30/05:00pm 9.0 5.0 3.0 66 2.6 SE 13 24 7 13 1023.3 1023.5 0.0
30/04:30pm 9.7 4.4 3.2 64 2.8 SE 20 30 11 16 1023.3 1023.5 0.0
30/04:00pm 10.2 4.9 3.0 61 3.1 SE 20 28 11 15 1023.3 1023.5 0.0
30/03:30pm 10.1 5.3 2.7 60 3.2 SE 17 28 9 15 1023.3 1023.5 0.0
30/03:00pm 10.3 6.0 3.1 61 3.1 ESE 15 24 8 13 1023.3 1023.5 0.0
30/02:30pm 10.2 5.5 3.3 62 3.0 SE 17 26 9 14 1023.3 1023.5 0.0
30/02:00pm 10.3 5.1 3.6 63 2.9 ESE 20 32 11 17 1023.4 1023.6 0.0
30/01:30pm 10.7 6.1 3.5 61 3.2 ESE 17 26 9 14 1023.3 1023.5 0.0
30/01:00pm 10.9 6.7 3.7 61 3.2 ESE 15 20 8 11 1023.4 1023.6 0.0
30/12:30pm 10.8 7.3 3.4 60 3.3 ESE 11 20 6 11 1023.8 1024.0 0.0
30/12:00pm 10.0 6.0 2.8 61 3.1 ESE 13 17 7 9 1024.6 1024.9 0.0
30/11:30am 9.9 6.1 3.9 66 2.6 ESE 13 15 7 8 1025.1 1025.4 0.0
30/11:00am 9.5 6.8 3.7 67 2.5 ESE 7 11 4 6 1025.5 1025.8 0.0
30/10:30am 8.7 6.4 2.5 65 2.6 N 4 7 2 4 1025.7 1026.0 0.0
30/10:00am 8.2 5.5 2.9 69 2.2 NNW 6 7 3 4 1025.8 1026.1 0.0
30/09:30am 7.9 5.7 3.2 72 2.0 N 4 7 2 4 1025.8 1026.1 0.0
30/09:00am 6.6 5.2 3.4 80 1.3 CALM 0 0 0 0 1025.8 1026.1 0.0
30/08:30am 5.5 3.0 3.5 87 0.8 N 6 11 3 6 1025.8 1026.1 0.0
30/08:00am 4.1 2.2 2.9 92 0.5 N 2 6 1 3 1026.0 1026.3 0.0
30/07:30am 3.3 1.7 2.4 94 0.4 CALM 0 0 0 0 1026.0 1026.3 0.0
30/07:00am 3.0 1.0 2.3 95 0.3 NNW 2 7 1 4 1025.8 1026.1 0.0
30/06:30am 2.7 -0.3 2.0 95 0.3 NW 7 9 4 5 1025.5 1025.8 0.0
30/06:00am 2.7 0.3 2.0 95 0.3 WSW 4 7 2 4 1025.5 1025.8 0.0
30/05:30am 2.6 0.9 1.7 94 0.3 CALM 0 0 0 0 1025.4 1025.7 0.0
30/05:00am 2.7 0.3 2.0 95 0.3 SSW 4 9 2 5 1025.2 1025.5 0.0
30/04:30am 2.5 0.8 1.9 96 0.2 CALM 0 0 0 0 1025.1 1025.4 0.0
30/04:00am 2.3 0.6 1.9 97 0.2 CALM 0 0 0 0 1025.0 1025.3 0.0
30/03:30am 2.0 -0.1 1.6 97 0.2 SE 2 7 1 4 1024.9 1025.2 0.0
30/03:00am 1.8 -0.8 1.1 95 0.3 NW 4 6 2 3 1025.1 1025.4 0.0
30/02:30am 1.9 0.1 1.3 96 0.2 CALM 0 0 0 0 1025.4 1025.7 0.0
30/02:00am 2.0 0.2 1.0 93 0.4 CALM 0 0 0 0 1025.7 1026.0 0.0
30/01:30am 2.8 1.0 1.5 91 0.5 CALM 0 0 0 0 1026.0 1026.3 0.0
30/01:00am 3.3 1.5 1.5 88 0.7 CALM 0 0 0 0 1026.0 1026.3 0.0
30/12:30am 3.7 1.2 1.6 86 0.8 SE 4 11 2 6 1026.1 1026.4 0.0
30/12:00am 4.6 2.1 1.8 82 1.1 SE 4 9 2 5 1026.3 1026.6 0.0
 
Date/Time
EST
Temp
°C
App
Temp
°C
Dew
Point
Rel
Hum
%
Delta-T
°C
Wind Press
QNH
hPa
Press
MSL
hPa
Rain
since 9 am
mm
Dir
 
Spd
km/h
Gust
km/h
Spd
kts
Gust
kts
29/11:30pm 5.4 2.0 1.9 78 1.4 W 9 11 5 6 1026.4 1026.7 0.0
29/11:00pm 6.4 2.6 1.5 71 2.0 SSW 11 17 6 9 1026.3 1026.6 0.0
29/10:30pm 6.3 2.1 1.8 73 1.8 WSW 13 15 7 8 1026.4 1026.7 0.0
29/10:00pm 6.6 3.2 2.1 73 1.8 S 9 13 5 7 1026.2 1026.5 0.0
29/09:30pm 6.5 3.8 3.5 81 1.3 WNW 7 11 4 6 1026.1 1026.4 0.0
29/09:00pm 6.8 4.6 3.4 79 1.4 SSE 4 7 2 4 1025.9 1026.2 0.0
29/08:30pm 7.1 4.0 3.7 79 1.5 SE 9 15 5 8 1025.6 1025.9 0.0
29/08:00pm 7.4 4.7 3.6 77 1.6 SE 7 11 4 6 1025.4 1025.7 0.0
29/07:30pm 7.5 5.0 3.9 78 1.6 SSE 6 9 3 5 1025.2 1025.5 0.0
29/07:00pm 7.6 4.5 3.8 77 1.6 SSE 9 13 5 7 1024.9 1025.2 0.0
29/06:30pm 7.7 3.6 4.1 78 1.6 SE 15 19 8 10 1024.6 1024.9 0.0
29/06:00pm 7.9 4.1 3.9 76 1.7 SE 13 17 7 9 1024.2 1024.4 0.0
29/05:30pm 8.3 4.1 3.8 73 2.0 SE 15 24 8 13 1024.0 1024.2 0.0
29/05:00pm 8.8 4.3 4.2 73 2.0 ESE 17 28 9 15 1023.5 1023.7 0.0
29/04:30pm 9.1 4.5 3.9 70 2.3 SE 17 24 9 13 1023.1 1023.3 0.0
29/04:00pm 9.8 4.3 4.2 68 2.5 SSE 22 33 12 18 1022.9 1023.1 0.0
29/03:30pm 10.3 5.1 3.6 63 2.9 SSE 20 33 11 18 1022.8 1023.0 0.0
29/03:00pm 10.5 5.1 4.4 66 2.7 SSE 22 32 12 17 1022.8 1023.0 0.0
29/02:30pm 11.6 5.8 4.6 62 3.2 SSE 24 37 13 20 1022.6 1022.8 0.0
29/02:00pm 11.5 6.1 4.5 62 3.2 SSE 22 32 12 17 1022.3 1022.5 0.0
29/01:30pm 11.6 5.6 5.5 66 2.8 SSE 26 35 14 19 1022.2 1022.4 0.0
29/01:00pm 10.9 5.6 4.8 66 2.8 SSE 22 33 12 18 1022.5 1022.7 0.0
29/12:30pm 11.5 6.3 5.6 67 2.7 S 22 37 12 20 1022.7 1022.9 0.0
29/12:00pm 11.4 5.4 5.1 65 2.9 S 26 39 14 21 1022.7 1022.9 0.0
29/11:30am 10.4 5.6 5.6 72 2.2 S 20 32 11 17 1022.6 1022.8 0.0
29/11:00am 9.8 4.1 5.0 72 2.2 S 24 35 13 19 1022.7 1022.9 0.0
29/10:30am 9.9 5.6 5.3 73 2.1 SSE 17 30 9 16 1022.5 1022.7 0.0
29/10:00am 9.5 4.8 6.0 79 1.6 SSE 20 28 11 15 1022.3 1022.5 0.0
29/09:30am 7.7 5.3 7.0 95 0.3 SSE 9 11 5 6 1022.3 1022.5 0.0
29/09:00am 6.7 5.2 6.7 100 0.0 ENE 4 9 2 5 1022.2 1022.4 9.2
29/08:30am 5.9 4.6 5.9 100 0.0 NW 2 7 1 4 1022.1 1022.3 9.2
29/08:00am 5.1 2.7 5.1 100 0.0 NW 7 11 4 6 1022.0 1022.2 9.2
29/07:30am 4.8 2.5 4.8 100 0.0 NNW 6 7 3 4 1021.7 1021.9 9.0
29/07:00am 4.5 2.9 4.5 100 0.0 N 2 9 1 5 1021.3 1021.5 8.8
29/06:30am 4.3 1.3 4.3 100 0.0 N 9 13 5 7 1021.0 1021.2 8.4
29/06:00am 4.3 1.7 4.2 99 0.0 N 7 9 4 5 1020.7 1020.9 7.6
29/05:30am 4.2 1.7 3.9 98 0.1 N 6 9 3 5 1020.4 1020.6 6.2
29/05:00am 4.1 1.0 3.7 97 0.2 N 9 13 5 7 1020.1 1020.3 4.8
29/04:30am 4.2 0.3 3.5 95 0.3 NNE 13 15 7 8 1019.7 1019.9 4.0
29/04:00am 4.2 1.0 3.3 94 0.4 NNE 9 13 5 7 1019.5 1019.7 3.6
29/03:30am 4.2 0.7 3.5 95 0.3 N 11 15 6 8 1019.3 1019.5 3.2
29/03:00am 4.2 0.6 3.2 93 0.4 NNE 11 17 6 9 1019.1 1019.3 2.8
29/02:30am 4.1 0.9 3.1 93 0.4 NNE 9 13 5 7 1019.3 1019.5 2.4
29/02:00am 4.3 1.6 2.7 89 0.6 NW 6 13 3 7 1019.6 1019.8 1.8
29/01:30am 4.2 -0.3 2.4 88 0.7 WNW 15 20 8 11 1019.6 1019.8 1.6
29/01:00am 3.7 0.0 2.5 92 0.5 NNW 11 15 6 8 1019.9 1020.1 1.6
29/12:30am 3.6 -0.1 2.1 90 0.6 NW 11 17 6 9 1020.3 1020.5 1.4
29/12:00am 3.9 -0.2 2.1 88 0.7 NW 13 20 7 11 1021.0 1021.2 1.0
 
Date/Time
EST
Temp
°C
App
Temp
°C
Dew
Point
Rel
Hum
%
Delta-T
°C
Wind Press
QNH
hPa
Press
MSL
hPa
Rain
since 9 am
mm
Dir
 
Spd
km/h
Gust
km/h
Spd
kts
Gust
kts
28/11:30pm 4.2 0.3 1.4 82 1.1 NW 11 19 6 10 1021.3 1021.5 0.2
28/11:00pm 3.6 -1.5 1.0 83 1.0 NW 17 20 9 11 1021.7 1021.9 0.0
28/10:30pm 2.9 -1.0 1.0 87 0.7 NNW 11 17 6 9 1022.2 1022.4 0.0
28/10:00pm 3.4 -0.9 1.3 86 0.8 NW 13 22 7 12 1023.0 1023.2 0.0
28/09:30pm 4.4 0.1 0.7 77 1.4 WNW 13 22 7 12 1023.5 1023.7 0.0
28/09:00pm 4.6 0.1 0.0 72 1.7 NNW 13 19 7 10 1023.6 1023.8 0.0

Other Formats:

Comma delimited format used in spreadsheet applications
http://www.bom.gov.au/fwo/IDT60801/IDT60801.94957.axf

JavaScript Object Notation format (JSON) in row-major order
http://www.bom.gov.au/fwo/IDT60801/IDT60801.94957.json